TAF Text Data
IDs:
Format:
Raw Decoded Include METAR

Data at: 1638 UTC 21 Sep 2018

TAF ETSI 211015Z 2111/2120 26010KT 9999 NSW FEW060 BKN240
  BECMG 2112/2115 27012KT 9999 NSW SCT060 BKN100 BKN200
  TEMPO 2115/2120 28012G25KT 8000 -RA SCT030 BKN060 OVC100 CANCEL 1100